AST1Driver
Topic Author
Posts: 111
Joined: Sun Oct 28, 2012 4:07 pm

LH454 A380 divert to OAK

Sat Jan 13, 2018 2:02 am

Anyone know the reason for the diversion? Looking at flightaware, it circled several times north of SFO, looks like it made one attempt before going to OAK.
 
hayzel777
Posts: 506
Joined: Wed Mar 16, 2016 3:18 am

Re: LH454 A380 divert to OAK

Sat Jan 13, 2018 2:05 am

AST1Driver wrote:
Anyone know the reason for the diversion? Looking at flightaware, it circled several times north of SFO, looks like it made one attempt before going to OAK.

Thick fog over SFO.
 
wedgetail737
Posts: 4409
Joined: Mon Aug 04, 2003 8:44 am

Re: LH454 A380 divert to OAK

Sat Jan 13, 2018 3:56 am

It's not the first time LH sent the A380 to OAK as a diversion.
 
ucdtim17
Posts: 349
Joined: Fri Jun 03, 2016 6:38 pm

Re: LH454 A380 divert to OAK

Sat Jan 13, 2018 4:39 am

 
flyguy84
Posts: 407
Joined: Thu Dec 22, 2016 7:26 pm

Re: LH454 A380 divert to OAK

Sat Jan 13, 2018 4:57 am

KSFO 122251Z 00000KT 5SM BR FEW002 FEW007 BKN200 11/10 A3030 RMK AO2
KSFO 122227Z 00000KT 1SM R28R/1000V3000FT BR FEW002 FEW004 SCT007 BKN200 11/10 A3030 RMK AO2 VIS S-W 4 T01060100
KSFO 122213Z 00000KT 3/4SM R28R/0800V1200FT BR FEW002 FEW004 SCT007 BKN200 11/10 A3030 RMK AO2 VIS S-W 4 T01110100
KSFO 122158Z 01004KT 3/4SM R28R/0800V3000FT BR FEW002 SCT004 SCT007 11/09 A3030 RMK AO2 VIS S-W 4 T01060094
KSFO 122156Z 36003KT 3/4SM R28R/0600V2200FT BR FEW002 SCT004 BKN007 11/09 A3030 RMK AO2 SLP261 VIS S-W 4 T01060094
KSFO 122125Z 36003KT 3/4SM R28R/1000V2000FT BR FEW002 SCT004 OVC007 11/09 A3031 RMK AO2 T01060094 $
KSFO 122111Z 00000KT 1/2SM R28R/1200VP6000FT FG FEW002 BKN004 OVC007 11/09 A3032 RMK AO2 T01060094 $
KSFO 122056Z 00000KT 1 1/2SM BR FEW002 SCT004 OVC007 11/09 A3032 RMK AO2 SLP268 VIS S-W 4 T01060094 58025 $
KSFO 122014Z 02004KT 2SM R28R/3500VP6000FT BR FEW002 SCT004 BKN008 11/09 A3034 RMK AO2 T01060094 $

Popular Searches On Airliners.net

Top Photos of Last:   24 Hours  •  48 Hours  •  7 Days  •  30 Days  •  180 Days  •  365 Days  •  All Time

Military Aircraft Every type from fighters to helicopters from air forces around the globe

Classic Airliners Props and jets from the good old days

Flight Decks Views from inside the cockpit

Aircraft Cabins Passenger cabin shots showing seat arrangements as well as cargo aircraft interior

Cargo Aircraft Pictures of great freighter aircraft

Government Aircraft Aircraft flying government officials

Helicopters Our large helicopter section. Both military and civil versions

Blimps / Airships Everything from the Goodyear blimp to the Zeppelin

Night Photos Beautiful shots taken while the sun is below the horizon

Accidents Accident, incident and crash related photos

Air to Air Photos taken by airborne photographers of airborne aircraft

Special Paint Schemes Aircraft painted in beautiful and original liveries

Airport Overviews Airport overviews from the air or ground

Tails and Winglets Tail and Winglet closeups with beautiful airline logos